Time;durP1;ratioP1;P1;durP2;ratioP2;P2;SDS_P1;SDS_P2;PMS_P1;PMS_P2;Temp;Humidity;BMP_temperature;BMP_pressure;BME280_temperature;BME280_humidity;BME280_pressure;Samples;Min_cycle;Max_cycle;Signal;HPM_P1;HPM_P2
2021/06/14 00:01:40;;;;;;;;;;;;;;;21.37;46.88;102157.44;5042343;28;1549;-58
2021/06/14 00:04:05;;;;;;;;;;;;;;;21.36;47.14;102155.72;5043934;28;1603;-57
2021/06/14 00:06:30;;;;;;;;;;;;;;;21.32;46.92;102155.13;5052266;28;1555;-58
2021/06/14 00:08:55;;;;;;;;;;;;;;;21.33;46.89;102146.00;5047358;28;1976;-58
2021/06/14 00:11:21;;;;;;;;;;;;;;;21.29;46.42;102141.03;5044857;28;1391;-58
2021/06/14 00:13:46;;;;;;;;;;;;;;;21.28;46.61;102137.47;5054130;28;1757;-58
2021/06/14 00:16:11;;;;;;;;;;;;;;;21.29;46.21;102136.47;5041450;28;1568;-58
2021/06/14 00:18:36;;;;;;;;;;;;;;;21.26;45.86;102134.03;5051350;28;1521;-58
2021/06/14 00:21:01;;;;;;;;;;;;;;;21.28;45.36;102136.59;5039516;28;1544;-58
2021/06/14 00:23:26;;;;;;;;;;;;;;;21.24;45.68;102129.72;5051099;28;1531;-57
2021/06/14 00:25:51;;;;;;;;;;;;;;;21.24;45.60;102124.31;5041422;28;1552;-58
2021/06/14 00:28:16;;;;;;;;;;;;;;;21.23;46.17;102122.59;5053730;28;1949;-57
2021/06/14 00:30:41;;;;;;;;;;;;;;;21.22;45.26;102116.31;5044971;28;1597;-57
2021/06/14 00:33:06;;;;;;;;;;;;;;;21.23;46.11;102114.44;5054082;28;1814;-57
2021/06/14 00:35:31;;;;;;;;;;;;;;;21.19;46.38;102121.09;5043026;28;1428;-56
2021/06/14 00:37:56;;;;;;;;;;;;;;;21.19;45.86;102112.97;5054040;28;1457;-56
2021/06/14 00:40:22;;;;;;;;;;;;;;;21.15;44.92;102109.66;5037060;28;1521;-56
2021/06/14 00:42:47;;;;;;;;;;;;;;;21.17;45.55;102106.81;5044717;28;1492;-57
2021/06/14 00:45:15;;;;;;;;;;;;;;;21.15;45.19;102105.09;5045762;28;1437;-57
2021/06/14 00:47:40;;;;;;;;;;;;;;;21.14;45.52;102102.53;5052811;28;1898;-57
2021/06/14 00:50:05;;;;;;;;;;;;;;;21.13;45.64;102104.41;5040647;28;1576;-57
2021/06/14 00:52:30;;;;;;;;;;;;;;;21.12;45.90;102097.28;5051093;28;1822;-56
2021/06/14 00:54:55;;;;;;;;;;;;;;;21.10;45.63;102096.56;5048154;28;1521;-54
2021/06/14 00:57:20;;;;;;;;;;;;;;;21.10;45.79;102098.41;5050052;28;1631;-57
2021/06/14 00:59:45;;;;;;;;;;;;;;;21.06;45.42;102088.81;5040452;28;1536;-57
2021/06/14 01:02:10;;;;;;;;;;;;;;;21.05;45.78;102087.97;5053642;28;1653;-57
2021/06/14 01:04:35;;;;;;;;;;;;;;;21.03;45.58;102079.09;5043779;28;1482;-56
2021/06/14 01:07:00;;;;;;;;;;;;;;;21.00;44.71;102070.38;5046552;28;1979;-57
2021/06/14 01:09:25;;;;;;;;;;;;;;;20.99;44.90;102066.81;5050704;28;1478;-57
2021/06/14 01:11:51;;;;;;;;;;;;;;;20.98;45.66;102066.97;5039801;28;1517;-57
2021/06/14 01:14:16;;;;;;;;;;;;;;;20.98;45.35;102061.53;5048735;28;1763;-57
2021/06/14 01:16:41;;;;;;;;;;;;;;;20.98;44.63;102067.81;5049152;28;1612;-58
2021/06/14 01:19:06;;;;;;;;;;;;;;;20.96;44.99;102060.84;5047611;28;1558;-58
2021/06/14 01:21:31;;;;;;;;;;;;;;;20.94;45.33;102060.97;5042213;28;1452;-56
2021/06/14 01:23:56;;;;;;;;;;;;;;;20.95;45.22;102056.41;5052945;28;1468;-58
2021/06/14 01:26:21;;;;;;;;;;;;;;;20.90;44.29;102047.84;5036745;28;1698;-57
2021/06/14 01:28:46;;;;;;;;;;;;;;;20.89;44.09;102044.25;5044658;28;1910;-57
2021/06/14 01:31:11;;;;;;;;;;;;;;;20.90;44.15;102045.13;5044936;28;1672;-57
2021/06/14 01:33:36;;;;;;;;;;;;;;;20.86;45.07;102041.81;5051348;28;1422;-57
2021/06/14 01:36:01;;;;;;;;;;;;;;;20.87;43.71;102039.97;5039671;28;1647;-58
2021/06/14 01:38:27;;;;;;;;;;;;;;;20.85;43.92;102040.09;5050773;28;1467;-57
2021/06/14 01:40:52;;;;;;;;;;;;;;;20.84;44.27;102034.81;5044985;28;1519;-57
2021/06/14 01:43:17;;;;;;;;;;;;;;;20.83;44.95;102039.38;5043999;28;1612;-58
2021/06/14 01:45:42;;;;;;;;;;;;;;;20.84;43.91;102034.81;5051851;28;1524;-58
2021/06/14 01:48:07;;;;;;;;;;;;;;;20.84;44.06;102029.41;5039478;28;1945;-58
2021/06/14 01:50:32;;;;;;;;;;;;;;;20.82;44.00;102037.66;5049849;28;1491;-58
2021/06/14 01:52:57;;;;;;;;;;;;;;;20.80;44.00;102036.94;5044622;28;1844;-58
2021/06/14 01:55:22;;;;;;;;;;;;;;;20.76;44.26;102032.81;5043009;28;1013;-58
2021/06/14 01:57:47;;;;;;;;;;;;;;;20.75;45.17;102034.66;5052396;28;1414;-58
2021/06/14 02:00:12;;;;;;;;;;;;;;;20.75;44.96;102029.25;5039374;28;2625;-58
2021/06/14 02:02:37;;;;;;;;;;;;;;;20.75;45.33;102025.69;5049054;28;1439;-58
2021/06/14 02:05:02;;;;;;;;;;;;;;;20.74;45.71;102018.53;5046139;28;1389;-58
2021/06/14 02:07:27;;;;;;;;;;;;;;;20.73;44.88;102020.41;5041807;28;1967;-58
2021/06/14 02:09:53;;;;;;;;;;;;;;;20.74;44.98;102026.66;5052188;28;1464;-57
2021/06/14 02:12:18;;;;;;;;;;;;;;;20.76;44.69;102016.56;5039818;28;1795;-58
2021/06/14 02:14:43;;;;;;;;;;;;;;;20.71;45.04;102016.97;5040923;28;1522;-58
2021/06/14 02:17:08;;;;;;;;;;;;;;;20.72;45.00;102015.09;5061972;28;1439;-58
2021/06/14 02:19:33;;;;;;;;;;;;;;;20.70;44.32;102014.38;5041017;28;1463;-57
2021/06/14 02:21:58;;;;;;;;;;;;;;;20.67;45.34;102018.22;5042175;28;1641;-57
2021/06/14 02:24:23;;;;;;;;;;;;;;;20.71;45.16;102016.97;5050391;28;1522;-58
2021/06/14 02:26:48;;;;;;;;;;;;;;;20.68;44.60;102014.53;5044027;28;1546;-58
2021/06/14 02:29:13;;;;;;;;;;;;;;;20.64;44.76;102012.22;5043194;28;1902;-58
2021/06/14 02:31:38;;;;;;;;;;;;;;;20.65;44.84;102013.94;5035805;28;1449;-58
2021/06/14 02:34:03;;;;;;;;;;;;;;;20.63;44.67;102018.63;5051873;28;1583;-57
2021/06/14 02:36:28;;;;;;;;;;;;;;;20.62;45.05;102019.63;5040963;28;1440;-58
2021/06/14 02:38:54;;;;;;;;;;;;;;;20.61;44.80;102012.47;5046244;28;1411;-58
2021/06/14 02:41:19;;;;;;;;;;;;;;;20.58;44.60;102019.06;5047891;28;1399;-58
2021/06/14 02:43:44;;;;;;;;;;;;;;;20.60;44.58;102002.66;5039185;28;1535;-58
2021/06/14 02:46:09;;;;;;;;;;;;;;;20.55;43.92;102003.06;5051560;28;1574;-58
2021/06/14 02:48:34;;;;;;;;;;;;;;;20.55;44.24;102000.38;5041637;28;1894;-58
2021/06/14 02:50:59;;;;;;;;;;;;;;;20.54;44.44;102003.19;5045180;28;1503;-57
2021/06/14 02:53:24;;;;;;;;;;;;;;;20.52;44.49;102007.91;5048236;28;1520;-57
2021/06/14 02:55:49;;;;;;;;;;;;;;;20.51;44.82;102007.03;5038430;28;1415;-57
2021/06/14 02:58:14;;;;;;;;;;;;;;;20.51;44.62;101998.06;5051069;28;1434;-58
2021/06/14 03:00:39;;;;;;;;;;;;;;;20.49;44.57;102002.75;5035582;28;1607;-58
2021/06/14 03:03:04;;;;;;;;;;;;;;;20.48;44.76;102004.59;5045599;28;1395;-58
2021/06/14 03:05:30;;;;;;;;;;;;;;;20.49;44.95;101998.19;5040498;28;1496;-57
2021/06/14 03:07:55;;;;;;;;;;;;;;;20.48;44.92;102001.88;5051488;28;1973;-57
2021/06/14 03:10:20;;;;;;;;;;;;;;;20.45;44.45;101996.72;5039039;28;1402;-57
2021/06/14 03:12:45;;;;;;;;;;;;;;;20.48;44.59;101996.47;5046787;28;1427;-58
2021/06/14 03:15:10;;;;;;;;;;;;;;;20.41;44.25;102004.28;5046335;28;1894;-58
2021/06/14 03:17:35;;;;;;;;;;;;;;;20.41;44.60;102000.72;5039666;28;1499;-58
2021/06/14 03:20:00;;;;;;;;;;;;;;;20.40;44.64;102004.44;5051340;28;1665;-57
2021/06/14 03:22:26;;;;;;;;;;;;;;;20.41;44.17;102004.28;5039684;28;1481;-57
2021/06/14 03:24:51;;;;;;;;;;;;;;;20.42;44.10;101997.03;5045573;28;1542;-57
2021/06/14 03:27:16;;;;;;;;;;;;;;;20.39;44.33;101995.44;5046585;28;1959;-57
2021/06/14 03:29:41;;;;;;;;;;;;;;;20.38;45.42;101987.47;5039127;28;1533;-56
2021/06/14 03:32:06;;;;;;;;;;;;;;;20.35;45.14;101991.25;5035237;28;1637;-57
2021/06/14 03:34:32;;;;;;;;;;;;;;;20.36;44.90;101993.00;5038510;28;1620;-57
2021/06/14 03:36:57;;;;;;;;;;;;;;;20.37;45.31;101999.28;5044210;28;1485;-57
2021/06/14 03:39:23;;;;;;;;;;;;;;;20.33;45.65;102000.50;5041654;28;1416;-57
2021/06/14 03:41:48;;;;;;;;;;;;;;;20.34;45.76;101999.50;5051282;28;1519;-57
2021/06/14 03:44:13;;;;;;;;;;;;;;;20.32;45.81;102001.50;5038226;28;1633;-58
2021/06/14 03:46:38;;;;;;;;;;;;;;;20.33;45.46;102008.63;5047130;28;1546;-58
2021/06/14 03:49:04;;;;;;;;;;;;;;;20.30;45.89;102006.19;5044837;28;1890;-58
2021/06/14 03:51:29;;;;;;;;;;;;;;;20.28;45.89;101998.19;5040512;28;1526;-58
2021/06/14 03:53:57;;;;;;;;;;;;;;;20.28;45.57;102000.91;5051049;28;1450;-58
2021/06/14 03:56:22;;;;;;;;;;;;;;;20.29;45.22;102002.63;5039021;28;1676;-58
2021/06/14 03:58:47;;;;;;;;;;;;;;;20.30;46.08;102009.75;5045733;28;1435;-58
2021/06/14 04:01:12;;;;;;;;;;;;;;;20.25;45.39;102000.31;5046104;28;1403;-58
2021/06/14 04:03:37;;;;;;;;;;;;;;;20.26;45.44;101992.03;5039126;28;1737;-58
2021/06/14 04:06:03;;;;;;;;;;;;;;;20.25;45.12;101998.44;5050608;28;1538;-58
2021/06/14 04:08:28;;;;;;;;;;;;;;;20.26;45.35;101992.03;5040026;28;1898;-57
2021/06/14 04:10:53;;;;;;;;;;;;;;;20.26;44.59;101997.47;5045062;28;1535;-57
2021/06/14 04:13:18;;;;;;;;;;;;;;;20.28;44.94;102003.59;5046924;28;1536;-57
2021/06/14 04:15:43;;;;;;;;;;;;;;;20.28;44.67;102002.75;5039877;28;1444;-58
2021/06/14 04:18:08;;;;;;;;;;;;;;;20.28;45.35;102000.91;5040818;28;1524;-57
2021/06/14 04:20:33;;;;;;;;;;;;;;;20.29;44.74;101999.03;5051449;28;1514;-58
2021/06/14 04:22:58;;;;;;;;;;;;;;;20.28;45.87;102000.03;5047480;28;1533;-56
2021/06/14 04:25:24;;;;;;;;;;;;;;;20.30;45.48;102003.47;5057753;28;925;-58
2021/06/14 04:27:49;;;;;;;;;;;;;;;20.31;45.15;101992.50;5041172;28;1922;-57
2021/06/14 04:30:14;;;;;;;;;;;;;;;20.31;45.50;101997.94;5056478;28;1824;-57
2021/06/14 04:32:39;;;;;;;;;;;;;;;20.33;44.99;102004.06;5050674;28;1739;-57
2021/06/14 04:35:04;;;;;;;;;;;;;;;20.33;44.79;101998.66;5048146;28;1465;-58
2021/06/14 04:37:29;;;;;;;;;;;;;;;20.37;45.05;101993.88;5039265;28;1996;-58
2021/06/14 04:39:54;;;;;;;;;;;;;;;20.58;45.59;101993.81;5040224;28;1301;-58
2021/06/14 04:42:19;;;;;;;;;;;;;;;20.67;46.12;102001.97;5042374;28;1425;-58
2021/06/14 04:44:44;;;;;;;;;;;;;;;20.70;46.25;102000.84;5048970;28;1095;-58
2021/06/14 04:47:09;;;;;;;;;;;;;;;20.71;45.64;102006.13;5048021;28;1967;-57
2021/06/14 04:49:34;;;;;;;;;;;;;;;20.70;46.80;102004.41;5041920;28;1361;-58
2021/06/14 04:51:59;;;;;;;;;;;;;;;20.70;45.58;102004.41;5040643;28;1250;-58
2021/06/14 04:54:25;;;;;;;;;;;;;;;20.75;45.95;101993.16;5041846;28;1064;-57
2021/06/14 04:56:50;;;;;;;;;;;;;;;20.87;46.52;101992.06;5047902;28;1183;-58
2021/06/14 04:59:15;;;;;;;;;;;;;;;20.90;48.66;101982.78;5035799;28;1534;-58
2021/06/14 05:01:40;;;;;;;;;;;;;;;20.88;48.26;101982.94;5036397;28;1585;-58
2021/06/14 05:04:05;;;;;;;;;;;;;;;20.91;47.74;101979.94;5053119;28;1205;-58
2021/06/14 05:06:30;;;;;;;;;;;;;;;20.89;48.04;101972.94;5042640;28;1117;-58
2021/06/14 05:08:55;;;;;;;;;;;;;;;20.86;47.48;101970.50;5046835;28;1956;-58
2021/06/14 05:11:21;;;;;;;;;;;;;;;20.89;47.21;101967.53;5048894;28;1651;-58
2021/06/14 05:13:46;;;;;;;;;;;;;;;20.89;47.03;101968.38;5039818;28;1119;-58
2021/06/14 05:16:11;;;;;;;;;;;;;;;20.91;46.89;101960.97;5061100;28;1389;-58
2021/06/14 05:18:36;;;;;;;;;;;;;;;20.95;46.89;101967.84;5036515;28;1333;-58
2021/06/14 05:21:02;;;;;;;;;;;;;;;20.92;46.16;101962.69;5036875;28;1262;-58
2021/06/14 05:23:27;;;;;;;;;;;;;;;20.94;45.58;101965.28;5036108;28;1932;-57
2021/06/14 05:25:52;;;;;;;;;;;;;;;20.93;45.52;101967.13;5036680;28;1178;-58
2021/06/14 05:28:17;;;;;;;;;;;;;;;20.95;46.16;101969.69;5035889;28;1904;-58
2021/06/14 05:30:42;;;;;;;;;;;;;;;20.93;45.69;101966.25;5035407;28;1424;-59
2021/06/14 05:33:07;;;;;;;;;;;;;;;20.94;45.72;101960.72;5035734;28;1388;-58
2021/06/14 05:35:32;;;;;;;;;;;;;;;20.97;45.53;101964.97;5036100;28;815;-58
2021/06/14 05:37:57;;;;;;;;;;;;;;;21.01;46.31;101974.53;5053522;28;1205;-58
2021/06/14 05:40:22;;;;;;;;;;;;;;;21.02;45.41;101979.81;5055991;28;886;-58
2021/06/14 05:42:48;;;;;;;;;;;;;;;21.00;45.68;101970.09;5055949;28;910;-59
2021/06/14 05:45:13;;;;;;;;;;;;;;;21.02;45.91;101973.53;5055658;28;878;-58
2021/06/14 05:47:38;;;;;;;;;;;;;;;21.04;45.30;101964.28;5048894;28;1902;-58
2021/06/14 05:50:03;;;;;;;;;;;;;;;21.02;46.09;101965.41;5036456;28;1861;-58
2021/06/14 05:52:28;;;;;;;;;;;;;;;21.06;45.79;101958.72;5035802;28;1926;-58
2021/06/14 05:54:53;;;;;;;;;;;;;;;21.06;45.96;101947.88;5036268;28;933;-58
2021/06/14 05:57:18;;;;;;;;;;;;;;;21.12;45.25;101950.03;5035703;28;889;-58
2021/06/14 05:59:43;;;;;;;;;;;;;;;21.10;44.96;101947.47;5035967;28;1111;-59
2021/06/14 06:02:08;;;;;;;;;;;;;;;21.11;46.43;101935.63;5035725;28;1001;-58
2021/06/14 06:04:33;;;;;;;;;;;;;;;21.12;45.03;101922.94;5035728;28;1705;-58
2021/06/14 06:06:59;;;;;;;;;;;;;;;21.14;44.95;101919.03;5035258;28;1890;-58
2021/06/14 06:09:24;;;;;;;;;;;;;;;21.19;45.64;101915.06;5035496;28;1195;-58
2021/06/14 06:11:49;;;;;;;;;;;;;;;21.14;45.53;101916.34;5034545;28;1533;-58
2021/06/14 06:14:14;;;;;;;;;;;;;;;21.09;45.31;101918.63;5034751;28;1634;-58
2021/06/14 06:16:39;;;;;;;;;;;;;;;21.05;45.65;101928.03;5036061;28;854;-59
2021/06/14 06:19:04;;;;;;;;;;;;;;;21.04;45.06;101929.03;5034267;28;1904;-58
2021/06/14 06:21:29;;;;;;;;;;;;;;;21.11;46.06;101919.34;5036058;28;988;-58
2021/06/14 06:23:54;;;;;;;;;;;;;;;21.11;45.84;101921.22;5035489;28;1784;-58
2021/06/14 06:26:19;;;;;;;;;;;;;;;21.09;44.98;101915.06;5035155;28;1017;-57
2021/06/14 06:28:44;;;;;;;;;;;;;;;21.11;44.55;101916.66;5035444;28;1903;-58
2021/06/14 06:31:09;;;;;;;;;;;;;;;21.15;44.39;101911.78;5035692;28;874;-58
2021/06/14 06:33:34;;;;;;;;;;;;;;;21.16;45.24;101905.34;5035160;28;1017;-58
2021/06/14 06:35:59;;;;;;;;;;;;;;;21.22;45.04;101893.13;5035087;28;902;-58
2021/06/14 06:38:25;;;;;;;;;;;;;;;21.28;45.03;101885.28;5034757;28;1002;-58
2021/06/14 06:40:50;;;;;;;;;;;;;;;21.29;44.52;101880.72;5034813;28;1826;-58
2021/06/14 06:43:15;;;;;;;;;;;;;;;21.25;44.57;101871.16;5034839;28;866;-58
2021/06/14 06:45:40;;;;;;;;;;;;;;;21.25;44.28;101876.56;5034954;28;1002;-58
2021/06/14 06:48:05;;;;;;;;;;;;;;;21.29;45.03;101878.00;5034086;28;1898;-58
2021/06/14 06:50:30;;;;;;;;;;;;;;;21.36;44.88;101877.28;5027984;28;1752;-60
2021/06/14 06:52:55;;;;;;;;;;;;;;;21.22;43.54;101876.84;5029098;28;1788;-59
2021/06/14 06:55:20;;;;;;;;;;;;;;;21.02;43.98;101870.56;5034509;28;1670;-59
2021/06/14 06:59:50;;;;;;;;;;;;;;;21.22;44.01;101860.59;5162959;27;54591;-59
2021/06/14 07:02:15;;;;;;;;;;;;;;;21.35;44.36;101866.56;5169773;27;1247;-59
2021/06/14 07:04:41;;;;;;;;;;;;;;;21.45;43.46;101870.13;5165174;27;1322;-60
2021/06/14 07:07:06;;;;;;;;;;;;;;;21.51;44.13;101863.25;5156962;27;1880;-59
2021/06/14 07:09:31;;;;;;;;;;;;;;;21.56;43.86;101869.97;5165084;27;1349;-60
2021/06/14 07:11:57;;;;;;;;;;;;;;;21.61;43.42;101864.09;5161083;27;1402;-59
2021/06/14 07:14:22;;;;;;;;;;;;;;;21.65;44.28;101868.25;5162632;27;1405;-58
2021/06/14 07:16:47;;;;;;;;;;;;;;;21.68;44.27;101867.94;5160172;27;1319;-59
2021/06/14 07:19:12;;;;;;;;;;;;;;;21.70;44.16;101866.78;5166681;27;1906;-59
2021/06/14 07:21:37;;;;;;;;;;;;;;;21.72;44.19;101867.50;5163843;27;1240;-59
2021/06/14 07:24:02;;;;;;;;;;;;;;;21.75;44.51;101853.63;5157910;27;1533;-58
2021/06/14 07:26:27;;;;;;;;;;;;;;;21.77;44.46;101859.78;5159551;27;1195;-58
2021/06/14 07:28:52;;;;;;;;;;;;;;;21.81;44.72;101855.78;5162171;27;1322;-59
2021/06/14 07:31:17;;;;;;;;;;;;;;;21.80;45.20;101843.19;5160554;27;1232;-59
2021/06/14 07:33:42;;;;;;;;;;;;;;;21.77;45.02;101851.63;5163473;27;1302;-59
2021/06/14 07:36:08;;;;;;;;;;;;;;;21.77;45.10;101848.06;5155869;27;1633;-59
2021/06/14 07:38:33;;;;;;;;;;;;;;;21.79;45.88;101848.78;5171050;27;1963;-59
2021/06/14 07:40:58;;;;;;;;;;;;;;;21.87;45.33;101846.16;5157616;27;1431;-59
2021/06/14 07:43:23;;;;;;;;;;;;;;;21.90;46.63;101848.56;5171643;27;1502;-59
2021/06/14 07:45:48;;;;;;;;;;;;;;;21.91;45.75;101853.00;5162186;27;1399;-59
2021/06/14 07:48:13;;;;;;;;;;;;;;;21.92;45.81;101843.00;5168162;27;1280;-59
2021/06/14 07:50:38;;;;;;;;;;;;;;;21.92;45.47;101845.72;5157750;27;1408;-59
2021/06/14 07:53:03;;;;;;;;;;;;;;;21.94;46.79;101858.13;5158843;27;1647;-59
2021/06/14 07:55:28;;;;;;;;;;;;;;;21.98;46.21;101853.28;5159809;27;1311;-59
2021/06/14 07:57:53;;;;;;;;;;;;;;;21.97;46.71;101846.13;5163519;27;1964;-60
2021/06/14 08:00:19;;;;;;;;;;;;;;;22.01;47.16;101853.00;5172515;27;1828;-59
2021/06/14 08:02:44;;;;;;;;;;;;;;;22.02;47.10;101849.31;5174171;27;841;-59
2021/06/14 08:05:09;;;;;;;;;;;;;;;22.04;47.06;101848.13;5173744;27;1011;-59
2021/06/14 08:07:34;;;;;;;;;;;;;;;22.06;47.17;101851.53;5163331;27;1814;-59
2021/06/14 08:10:04;;;;;;;;;;;;;;;22.09;46.32;101845.81;5146434;27;1863;-60
2021/06/14 08:12:29;;;;;;;;;;;;;;;22.11;47.35;101840.25;5138978;27;810;-60
2021/06/14 08:14:54;;;;;;;;;;;;;;;22.14;47.32;101839.94;5139226;27;824;-59
2021/06/14 08:17:20;;;;;;;;;;;;;;;22.16;47.00;101843.38;5138923;27;779;-60
2021/06/14 08:20:00;;;;;;;;;;;;;;;22.17;47.28;101847.78;5143745;27;1910;-60
2021/06/14 08:25:03;;;;;;;;;;;;;;;22.21;46.87;101857.34;5160143;27;853;-60
2021/06/14 08:25:22;;;;;;;;;;;;;;;22.24;46.72;101856.16;5159664;27;1431;-60
2021/06/14 08:27:47;;;;;;;;;;;;;;;22.25;46.79;101849.75;5159671;27;849;-60
2021/06/14 08:30:12;;;;;;;;;;;;;;;22.26;46.94;101860.44;5159333;27;1075;-61
2021/06/14 08:32:37;;;;;;;;;;;;;;;22.26;47.25;101857.75;5159722;27;964;-60
2021/06/14 08:35:02;;;;;;;;;;;;;;;22.29;46.81;101862.00;5140917;27;754;-60
2021/06/14 08:37:27;;;;;;;;;;;;;;;22.31;47.21;101857.28;5150272;27;1956;-60
2021/06/14 08:39:52;;;;;;;;;;;;;;;22.31;47.32;101862.72;5137991;27;949;-59
2021/06/14 08:42:17;;;;;;;;;;;;;;;22.32;46.51;101854.44;5138396;27;912;-60
2021/06/14 08:44:43;;;;;;;;;;;;;;;22.34;47.62;101859.72;5138492;27;1008;-60
2021/06/14 08:47:08;;;;;;;;;;;;;;;22.35;47.04;101858.72;5138380;27;854;-60
2021/06/14 08:49:33;;;;;;;;;;;;;;;22.35;47.17;101861.41;5138755;27;968;-60
2021/06/14 08:51:58;;;;;;;;;;;;;;;22.32;46.74;101861.72;5140622;27;1662;-60
2021/06/14 08:54:23;;;;;;;;;;;;;;;22.34;46.54;101863.28;5158485;27;1012;-60
2021/06/14 08:56:48;;;;;;;;;;;;;;;22.39;46.83;101862.84;5153570;27;1802;-60
2021/06/14 08:59:13;;;;;;;;;;;;;;;22.41;46.15;101866.22;5138263;27;1948;-60
2021/06/14 09:01:38;;;;;;;;;;;;;;;22.41;46.69;101861.66;5138228;27;1020;-60
2021/06/14 09:04:03;;;;;;;;;;;;;;;22.45;46.86;101873.94;5137828;27;953;-60
2021/06/14 09:06:29;;;;;;;;;;;;;;;22.46;46.90;101862.06;5138342;27;877;-60
2021/06/14 09:08:54;;;;;;;;;;;;;;;22.46;46.50;101863.91;5138005;27;1539;-60
2021/06/14 09:11:19;;;;;;;;;;;;;;;22.48;46.78;101861.91;5138229;27;853;-60
2021/06/14 09:13:44;;;;;;;;;;;;;;;22.49;47.00;101844.59;5137723;27;993;-60
2021/06/14 09:16:09;;;;;;;;;;;;;;;22.50;46.87;101844.44;5139136;27;1599;-59
2021/06/14 09:18:34;;;;;;;;;;;;;;;22.52;46.83;101836.16;5158219;27;1914;-59
2021/06/14 09:20:59;;;;;;;;;;;;;;;22.52;46.86;101834.28;5157552;27;869;-60
2021/06/14 09:23:24;;;;;;;;;;;;;;;22.55;46.90;101840.44;5157700;27;810;-60
2021/06/14 09:25:49;;;;;;;;;;;;;;;22.56;46.52;101842.16;5157959;27;1160;-60
2021/06/14 09:28:15;;;;;;;;;;;;;;;22.58;46.91;101834.66;5158294;27;1079;-60
2021/06/14 09:30:40;;;;;;;;;;;;;;;22.58;47.02;101831.94;5158352;27;795;-61
2021/06/14 09:33:05;;;;;;;;;;;;;;;22.60;46.61;101827.22;5158528;27;944;-60
2021/06/14 09:35:31;;;;;;;;;;;;;;;22.61;46.75;101826.22;5158466;27;930;-60
2021/06/14 09:37:56;;;;;;;;;;;;;;;22.63;47.07;101837.78;5156918;27;1948;-60
2021/06/14 09:40:21;;;;;;;;;;;;;;;22.64;46.98;101836.78;5151531;27;1806;-60
2021/06/14 09:42:46;;;;;;;;;;;;;;;22.64;46.51;101817.75;5150009;27;1906;-61
2021/06/14 09:45:11;;;;;;;;;;;;;;;22.65;47.20;101816.75;5148390;27;1704;-61
2021/06/14 09:47:36;;;;;;;;;;;;;;;22.70;45.99;101817.16;5149155;27;1890;-60
2021/06/14 09:50:01;;;;;;;;;;;;;;;22.70;46.13;101822.59;5146324;27;2143;-60
2021/06/14 09:52:26;;;;;;;;;;;;;;;22.75;45.96;101814.84;5143553;27;1824;-60
2021/06/14 09:54:51;;;;;;;;;;;;;;;22.77;46.07;101820.97;5153247;27;1742;-60
2021/06/14 09:57:16;;;;;;;;;;;;;;;22.79;45.81;101832.53;5153012;27;1773;-61
2021/06/14 09:59:41;;;;;;;;;;;;;;;22.80;46.64;101815.22;5150631;27;1897;-61
2021/06/14 10:02:06;;;;;;;;;;;;;;;22.82;45.91;101821.38;5145400;27;1420;-61
2021/06/14 10:04:32;;;;;;;;;;;;;;;22.82;46.50;101814.06;5145518;27;1452;-61
2021/06/14 10:07:00;;;;;;;;;;;;;;;22.83;46.76;101812.22;5157665;27;1604;-61
2021/06/14 10:09:25;;;;;;;;;;;;;;;22.85;46.13;101802.03;5157550;27;855;-61
2021/06/14 10:11:50;;;;;;;;;;;;;;;22.87;46.79;101808.16;5157891;27;851;-61
2021/06/14 10:14:15;;;;;;;;;;;;;;;22.88;46.20;101806.31;5147939;27;1689;-61
2021/06/14 10:16:41;;;;;;;;;;;;;;;22.91;46.88;101800.56;5149999;27;2177;-61
2021/06/14 10:19:07;;;;;;;;;;;;;;;22.92;47.16;101794.97;5144830;27;1972;-61
2021/06/14 10:21:32;;;;;;;;;;;;;;;22.93;47.03;101798.53;5143488;27;1345;-61
2021/06/14 10:23:58;;;;;;;;;;;;;;;22.93;46.82;101796.66;5144049;27;1485;-61
2021/06/14 10:26:23;;;;;;;;;;;;;;;23.00;46.85;101803.19;5144813;27;1515;-61
2021/06/14 10:28:48;;;;;;;;;;;;;;;23.08;46.86;101805.13;5145543;27;1499;-61
2021/06/14 10:31:13;;;;;;;;;;;;;;;23.04;47.09;101801.00;5146018;27;1433;-62
2021/06/14 10:33:38;;;;;;;;;;;;;;;23.02;46.16;101793.00;5144520;27;1572;-62
2021/06/14 10:36:03;;;;;;;;;;;;;;;23.01;46.42;101801.31;5141942;27;1273;-61
2021/06/14 10:38:28;;;;;;;;;;;;;;;23.03;46.58;101781.13;5144708;27;1960;-61
2021/06/14 10:40:53;;;;;;;;;;;;;;;23.03;46.82;101792.00;5143709;27;1435;-61
2021/06/14 10:43:21;;;;;;;;;;;;;;;23.05;46.57;101787.25;5142556;27;1435;-62
2021/06/14 10:45:46;;;;;;;;;;;;;;;23.07;46.63;101796.13;5143395;27;1477;-62
2021/06/14 10:48:11;;;;;;;;;;;;;;;23.25;46.66;101787.06;5147153;27;1577;-61
2021/06/14 10:50:36;;;;;;;;;;;;;;;23.30;46.54;101784.69;5140833;27;1792;-61
2021/06/14 10:53:01;;;;;;;;;;;;;;;23.18;46.96;101790.41;5144575;27;1653;-60
2021/06/14 10:55:26;;;;;;;;;;;;;;;23.18;47.12;101790.41;5149674;27;1282;-60
2021/06/14 10:57:51;;;;;;;;;;;;;;;23.18;46.49;101784.13;5144169;27;1961;-60
2021/06/14 11:00:16;;;;;;;;;;;;;;;23.18;46.56;101795.00;5140956;27;1781;-60
2021/06/14 11:02:41;;;;;;;;;;;;;;;23.20;46.11;101796.53;5146680;27;1519;-59
2021/06/14 11:05:06;;;;;;;;;;;;;;;23.26;46.81;101789.63;5126170;27;1571;-60
2021/06/14 11:07:31;;;;;;;;;;;;;;;23.27;46.91;101795.94;5147043;27;1453;-60
2021/06/14 11:09:57;;;;;;;;;;;;;;;23.29;46.20;101791.19;5144151;27;1356;-60
2021/06/14 11:12:22;;;;;;;;;;;;;;;23.29;46.07;101791.19;5146272;27;1271;-60
2021/06/14 11:14:47;;;;;;;;;;;;;;;23.30;46.83;101793.72;5145411;27;1272;-59
2021/06/14 11:17:12;;;;;;;;;;;;;;;23.32;46.80;101783.53;5144959;27;1402;-59
2021/06/14 11:19:37;;;;;;;;;;;;;;;23.33;46.72;101781.66;5143378;27;1922;-59
2021/06/14 11:22:02;;;;;;;;;;;;;;;23.34;46.60;101784.22;5144721;27;1124;-59
2021/06/14 11:24:27;;;;;;;;;;;;;;;23.36;46.45;101781.34;5145090;27;1355;-59
2021/06/14 11:26:52;;;;;;;;;;;;;;;23.38;46.41;101782.91;5135436;28;803;-59
2021/06/14 11:29:18;;;;;;;;;;;;;;;23.40;46.25;101782.75;5135657;28;1016;-60
2021/06/14 11:31:43;;;;;;;;;;;;;;;23.41;46.55;101773.56;5135908;27;1792;-59
2021/06/14 11:34:08;;;;;;;;;;;;;;;23.41;46.24;101776.28;5139044;27;1827;-59
2021/06/14 11:36:33;;;;;;;;;;;;;;;23.44;46.30;101768.66;5138579;27;1144;-59
2021/06/14 11:38:58;;;;;;;;;;;;;;;23.45;46.31;101769.53;5142345;27;1898;-61
2021/06/14 11:41:23;;;;;;;;;;;;;;;23.78;46.15;101774.16;5145003;27;1523;-60
2021/06/14 11:43:48;;;;;;;;;;;;;;;23.94;45.82;101769.78;5141734;27;1396;-60
2021/06/14 11:46:13;;;;;;;;;;;;;;;24.02;45.46;101767.94;5133020;27;1249;-60
2021/06/14 11:48:38;;;;;;;;;;;;;;;24.11;45.18;101768.84;5144093;27;1763;-60
2021/06/14 11:51:03;;;;;;;;;;;;;;;24.07;45.50;101775.63;5142358;27;1398;-60
2021/06/14 11:53:28;;;;;;;;;;;;;;;24.06;45.32;101772.03;5150631;27;1418;-60
2021/06/14 11:55:54;;;;;;;;;;;;;;;24.10;44.94;101764.41;5144639;27;1454;-60
2021/06/14 11:58:20;;;;;;;;;;;;;;;24.06;45.47;101763.00;5147170;27;1941;-61
2021/06/14 12:00:46;;;;;;;;;;;;;;;24.14;45.35;101765.78;5145439;27;1606;-61
2021/06/14 12:03:11;;;;;;;;;;;;;;;24.23;45.44;101764.78;5155369;27;1276;-61
2021/06/14 12:05:36;;;;;;;;;;;;;;;24.21;45.12;101755.91;5144897;27;1368;-60
2021/06/14 12:08:01;;;;;;;;;;;;;;;24.27;45.23;101760.72;5144829;27;1541;-60
2021/06/14 12:10:26;;;;;;;;;;;;;;;24.26;45.77;101753.56;5152811;27;1277;-61
2021/06/14 12:12:51;;;;;;;;;;;;;;;24.34;45.58;101764.50;5141492;27;1309;-60
2021/06/14 12:15:16;;;;;;;;;;;;;;;24.38;45.52;101757.69;5154465;27;1325;-60
2021/06/14 12:17:43;;;;;;;;;;;;;;;24.30;45.10;101754.97;5145731;27;1905;-60
2021/06/14 12:20:08;;;;;;;;;;;;;;;24.35;45.38;101747.16;5150185;27;1252;-60
2021/06/14 12:22:33;;;;;;;;;;;;;;;24.37;45.20;101744.22;5153283;27;1339;-59
2021/06/14 12:24:58;;;;;;;;;;;;;;;24.43;45.42;101755.31;5141526;27;1425;-60
2021/06/14 12:27:24;;;;;;;;;;;;;;;24.44;45.37;101746.13;5149503;27;1556;-59
2021/06/14 12:29:49;;;;;;;;;;;;;;;24.46;45.22;101751.41;5149625;27;1563;-60
2021/06/14 12:32:14;;;;;;;;;;;;;;;24.41;45.62;101743.72;5150595;27;1303;-59
2021/06/14 12:34:39;;;;;;;;;;;;;;;24.40;45.08;101754.78;5145725;27;1355;-60
2021/06/14 12:37:06;;;;;;;;;;;;;;;24.49;44.85;101753.81;5122759;27;1357;-60
2021/06/14 12:39:31;;;;;;;;;;;;;;;24.47;44.78;101745.78;5151734;27;1947;-60